Wausau Downtown Airport
KAUW : now visible

Airfield :











YOU CAN JOIN US ON...

 
LOGIN :

Register | Disclaimer

   EN    FR    IT 

 









Legend :    VFR   Marginal VFR   IFR   Intensive IFR   Very Intensive IFR
Visi :
Ceiling :
>= 8 km
>= 3000ft
5 to 8 km
1000 to 3000 ft
1500m to 5 km
500 to 1000 ft
800 to 1500m
200 to 500 ft
< 800m
< 200 ft
Symbols :   Thunderstorms  Fog  Heavy snow  Heavy precipitations  Wind > 20 kt






- Airport Elevation : 1201 ft


KAUW - Wausau Downtown

CURRENT METAR :
  • 301654Z AUTO 00000KT 10SM FEW043 21/11 A3020 RMK AO2 SLP228 T02060106

EXPIRED METARs :
  • 301554Z AUTO 19004KT 10SM CLR 19/11 A3022 RMK AO2 SLP232 T01940106
  • 301454Z AUTO VRB03KT 10SM CLR 18/10 A3023 RMK AO2 SLP238 T01780100 51005
  • 301354Z AUTO 07005KT 10SM CLR 17/09 A3023 RMK AO2 SLP238 T01670094

TAF KAUW
Valid from the 30 at 12:00 until the 31 at 12:00 UTC


301127Z 3012/3112 07004KT P6SM FEW035 BKN250
FM301600 25006KT P6SM SCT050 BKN250
FM310100 22005KT P6SM SCT250
FM310800 26005KT P6SM SCT250
KZMP FIR / North America



MET'MAP, your aeronautical weather chart ! - Copyright ORBIFLY December 2007 - Disclaimer

ORBIFLY MET'MAP TEAM :

Programming & Development : Alexandra Zaïnal
Concept & original design : Baudouin d'Aumeries
Assistance for programming : Marc-Olivier Méhu
Technical & hardware support : Manuel Goepfert

Contact : metmap@orbifly.com




SOURCES & CREDITS :

   NOAA       Earth
Advisory